Norwood, CO

6:59 PM MDT on August 28, 2014 (GMT -0600)
Telluride Regional | Change Station
CLOSE
Current Station
Airport
Location: Telluride,
Elevation: 9078 ft
Nearby Weather Stations

Elev 9078 ft 37.95 °N, 107.91 °W | Updated 24 minutes ago

Scattered Clouds
Scattered Clouds
59 °F
Feels Like 59 °F
N
0
Wind Variable Wind from North

Today
High -- | Low -- °F
--% Chance of Precip.
Yesterday
High -- | Low -- °F
Precip. -- in
6:39 AM 7:48 PM
Waxing Crescent, 11% visible
Pressure 30.39 in
Visibility 10.0 miles
Clouds Scattered Clouds 5000 ft
Dew Point 39 °F
Humidity 48%
Rainfall 0.00 in
Snow Depth 0 in
UV 1 out of 12
Pollen 9.10 out of 12
Air Quality Not available.
Flu Activity Not available.
METAR KTEX 290035Z AUTO 00000KT 10SM SCT050 15/04 A3039 RMK AO2

More Conditions Fewer Conditions

Pressure 30.39 in
Visibility 10.0 miles
Clouds Scattered Clouds 5000 ft
Dew Point 39 °F
Humidity 48%
Rainfall 0.00 in
Snow Depth 0 in
UV 1 out of 12
Pollen 9.10 out of 12
Air Quality Not available.
Flu Activity Not available.
METAR KTEX 290035Z AUTO 00000KT 10SM SCT050 15/04 A3039 RMK AO2

More Conditions Fewer Conditions

10-Day Weather Forecast

Almanac

Astronomy

Aug. 28, 2014 Rise Set
Actual Time 6:39 AM MDT 7:48 PM MDT
Civil Twilight 6:12 AM MDT 8:15 PM MDT
Nautical Twilight 5:39 AM MDT 8:48 PM MDT
Astronomical Twilight 5:05 AM MDT 9:21 PM MDT
Moon 9:31 AM MDT (8/28) 9:17 PM MDT (8/28)
Length of Visible Light 14h 03m
Length of Day
13h 09m
Tomorrow will be 2m 19s shorter.
Waxing Crescent, 11% of the Moon is Illuminated
Today
Waxing Crescent
Sep 2
First Quarter
Sep 8
Full
Sep 15
Last Quarter
Sep 24
New

Today's Extremes

State Highs State Lows

Community

WunderPhotos

Upload Photos

1,748,112 photos uploaded!

Nearby

Snow Depth

Station Depth Elevation
Lone Cone 0 in 9600 ft
El Diente Peak 0 in 10200 ft
Lizard Head Pass 0 in 10200 ft
Red Mountain Pass 0 in 11150 ft
Mineral Creek 0 in 10040 ft

Earthquake Activity

City Distance Mag. Time & Date
No recent earthquake activity has been reported nearby.
Minimum magnitude displayed is 2.5.

Coastal Water Temperatures

Place Temperature
No Stations Reporting

Nearby Weather Stations